sensor_id;sensor_type;location;lat;lon;timestamp;pressure;altitude;pressure_sealevel;temperature;humidity
10992;BME280;5549;47.028;15.514;2022-12-10T00:01:45;94980.38;;;4.60;84.58
10992;BME280;5549;47.028;15.514;2022-12-10T00:04:13;94973.53;;;4.59;84.19
10992;BME280;5549;47.028;15.514;2022-12-10T00:06:42;94972.97;;;4.56;84.28
10992;BME280;5549;47.028;15.514;2022-12-10T00:09:15;94991.06;;;4.57;84.53
10992;BME280;5549;47.028;15.514;2022-12-10T00:11:43;94987.63;;;4.57;84.58
10992;BME280;5549;47.028;15.514;2022-12-10T00:14:14;94989.28;;;4.58;84.17
10992;BME280;5549;47.028;15.514;2022-12-10T00:16:42;94994.22;;;4.61;84.26
10992;BME280;5549;47.028;15.514;2022-12-10T00:19:16;95006.25;;;4.62;84.32
10992;BME280;5549;47.028;15.514;2022-12-10T00:21:44;95007.22;;;4.61;83.91
10992;BME280;5549;47.028;15.514;2022-12-10T00:24:12;94998.84;;;4.57;83.86
10992;BME280;5549;47.028;15.514;2022-12-10T00:26:40;94997.06;;;4.58;83.93
10992;BME280;5549;47.028;15.514;2022-12-10T00:29:11;95005.69;;;4.58;84.18
10992;BME280;5549;47.028;15.514;2022-12-10T00:31:42;95000.22;;;4.61;84.23
10992;BME280;5549;47.028;15.514;2022-12-10T00:34:13;95007.34;;;4.59;83.94
10992;BME280;5549;47.028;15.514;2022-12-10T00:36:44;95010.06;;;4.58;83.62
10992;BME280;5549;47.028;15.514;2022-12-10T00:39:16;95023.06;;;4.58;83.99
10992;BME280;5549;47.028;15.514;2022-12-10T00:41:44;95026.22;;;4.61;84.00
10992;BME280;5549;47.028;15.514;2022-12-10T00:44:15;95030.88;;;4.58;83.84
10992;BME280;5549;47.028;15.514;2022-12-10T00:46:44;95023.47;;;4.53;83.75
10992;BME280;5549;47.028;15.514;2022-12-10T00:49:12;95023.72;;;4.50;84.00
10992;BME280;5549;47.028;15.514;2022-12-10T00:51:42;95026.19;;;4.51;84.15
10992;BME280;5549;47.028;15.514;2022-12-10T00:54:13;95024.84;;;4.57;84.01
10992;BME280;5549;47.028;15.514;2022-12-10T00:56:41;95020.84;;;4.53;83.67
10992;BME280;5549;47.028;15.514;2022-12-10T00:59:09;95020.94;;;4.42;83.48
10992;BME280;5549;47.028;15.514;2022-12-10T01:01:39;95026.34;;;4.29;83.86
10992;BME280;5549;47.028;15.514;2022-12-10T01:04:12;95025.47;;;4.19;84.31
10992;BME280;5549;47.028;15.514;2022-12-10T01:06:45;95038.19;;;4.22;84.78
10992;BME280;5549;47.028;15.514;2022-12-10T01:09:18;95054.09;;;4.29;84.73
10992;BME280;5549;47.028;15.514;2022-12-10T01:11:49;95051.00;;;4.35;84.70
10992;BME280;5549;47.028;15.514;2022-12-10T01:14:20;95057.31;;;4.42;84.66
10992;BME280;5549;47.028;15.514;2022-12-10T01:16:49;95067.91;;;4.50;84.87
10992;BME280;5549;47.028;15.514;2022-12-10T01:19:18;95070.25;;;4.53;84.67
10992;BME280;5549;47.028;15.514;2022-12-10T01:21:50;95071.91;;;4.54;85.03
10992;BME280;5549;47.028;15.514;2022-12-10T01:24:18;95069.03;;;4.57;84.70
10992;BME280;5549;47.028;15.514;2022-12-10T01:26:48;95073.16;;;4.60;84.84
10992;BME280;5549;47.028;15.514;2022-12-10T01:29:16;95076.44;;;4.62;84.71
10992;BME280;5549;47.028;15.514;2022-12-10T01:31:44;95079.63;;;4.65;84.65
10992;BME280;5549;47.028;15.514;2022-12-10T01:34:17;95092.63;;;4.65;84.46
10992;BME280;5549;47.028;15.514;2022-12-10T01:36:51;95086.97;;;4.60;84.53
10992;BME280;5549;47.028;15.514;2022-12-10T01:39:21;95094.34;;;4.55;84.73
10992;BME280;5549;47.028;15.514;2022-12-10T01:41:51;95089.13;;;4.55;84.65
10992;BME280;5549;47.028;15.514;2022-12-10T01:45:04;95097.00;;;4.44;84.42
10992;BME280;5549;47.028;15.514;2022-12-10T01:47:32;95100.31;;;4.46;84.99
10992;BME280;5549;47.028;15.514;2022-12-10T01:50:01;95098.16;;;4.51;84.88
10992;BME280;5549;47.028;15.514;2022-12-10T01:52:29;95106.38;;;4.56;85.34
10992;BME280;5549;47.028;15.514;2022-12-10T01:54:57;95095.16;;;4.56;84.95
10992;BME280;5549;47.028;15.514;2022-12-10T01:57:27;95097.63;;;4.57;85.05
10992;BME280;5549;47.028;15.514;2022-12-10T02:00:00;95090.53;;;4.59;85.05
10992;BME280;5549;47.028;15.514;2022-12-10T02:02:38;95089.41;;;4.52;85.08
10992;BME280;5549;47.028;15.514;2022-12-10T02:05:30;95101.19;;;4.56;84.78
10992;BME280;5549;47.028;15.514;2022-12-10T02:08:08;95091.22;;;4.61;84.95
10992;BME280;5549;47.028;15.514;2022-12-10T02:10:50;95084.25;;;4.62;84.72
10992;BME280;5549;47.028;15.514;2022-12-10T02:13:30;95090.53;;;4.59;85.71
10992;BME280;5549;47.028;15.514;2022-12-10T02:16:04;95078.34;;;4.60;85.64
10992;BME280;5549;47.028;15.514;2022-12-10T02:18:39;95076.59;;;4.60;85.42
10992;BME280;5549;47.028;15.514;2022-12-10T02:21:15;95074.97;;;4.69;85.90
10992;BME280;5549;47.028;15.514;2022-12-10T02:23:47;95079.66;;;4.75;85.21
10992;BME280;5549;47.028;15.514;2022-12-10T02:26:24;95078.19;;;4.82;85.34
10992;BME280;5549;47.028;15.514;2022-12-10T02:29:10;95084.66;;;4.88;85.89
10992;BME280;5549;47.028;15.514;2022-12-10T02:31:45;95088.63;;;4.92;85.12
10992;BME280;5549;47.028;15.514;2022-12-10T02:34:15;95083.31;;;4.93;84.91
10992;BME280;5549;47.028;15.514;2022-12-10T02:36:46;95090.97;;;4.95;85.02
10992;BME280;5549;47.028;15.514;2022-12-10T02:39:24;95089.06;;;4.97;85.03
10992;BME280;5549;47.028;15.514;2022-12-10T02:41:55;95088.13;;;4.98;84.91
10992;BME280;5549;47.028;15.514;2022-12-10T02:44:28;95084.44;;;5.00;84.94
10992;BME280;5549;47.028;15.514;2022-12-10T02:46:57;95088.53;;;5.03;85.15
10992;BME280;5549;47.028;15.514;2022-12-10T02:49:26;95094.44;;;5.05;85.29
10992;BME280;5549;47.028;15.514;2022-12-10T02:51:56;95091.72;;;5.06;84.96
10992;BME280;5549;47.028;15.514;2022-12-10T02:54:37;95095.97;;;5.07;84.33
10992;BME280;5549;47.028;15.514;2022-12-10T02:57:15;95102.81;;;5.08;84.45
10992;BME280;5549;47.028;15.514;2022-12-10T03:00:12;95109.78;;;5.08;84.94
10992;BME280;5549;47.028;15.514;2022-12-10T03:03:16;95114.81;;;5.00;84.65
10992;BME280;5549;47.028;15.514;2022-12-10T03:05:52;95127.25;;;4.96;84.39
10992;BME280;5549;47.028;15.514;2022-12-10T03:08:27;95122.44;;;4.92;84.68
10992;BME280;5549;47.028;15.514;2022-12-10T03:11:07;95127.41;;;4.95;84.72
10992;BME280;5549;47.028;15.514;2022-12-10T03:13:40;95127.41;;;4.95;84.47
10992;BME280;5549;47.028;15.514;2022-12-10T03:16:12;95122.88;;;4.97;84.81
10992;BME280;5549;47.028;15.514;2022-12-10T03:18:42;95125.75;;;4.94;84.68
10992;BME280;5549;47.028;15.514;2022-12-10T03:21:15;95128.03;;;4.87;84.64
10992;BME280;5549;47.028;15.514;2022-12-10T03:23:46;95129.81;;;4.87;84.75
10992;BME280;5549;47.028;15.514;2022-12-10T03:26:18;95123.91;;;4.84;84.53
10992;BME280;5549;47.028;15.514;2022-12-10T03:28:55;95131.72;;;4.84;84.57
10992;BME280;5549;47.028;15.514;2022-12-10T03:31:26;95134.31;;;4.84;84.64
10992;BME280;5549;47.028;15.514;2022-12-10T03:33:55;95138.31;;;4.89;85.16
10992;BME280;5549;47.028;15.514;2022-12-10T03:36:24;95136.16;;;4.94;84.66
10992;BME280;5549;47.028;15.514;2022-12-10T03:38:53;95136.59;;;4.99;85.04
10992;BME280;5549;47.028;15.514;2022-12-10T03:41:21;95137.03;;;5.04;85.29
10992;BME280;5549;47.028;15.514;2022-12-10T03:43:54;95134.84;;;5.09;84.63
10992;BME280;5549;47.028;15.514;2022-12-10T03:46:26;95141.44;;;5.13;84.96
10992;BME280;5549;47.028;15.514;2022-12-10T03:48:55;95138.66;;;5.05;84.56
10992;BME280;5549;47.028;15.514;2022-12-10T03:51:25;95146.72;;;5.02;85.17
10992;BME280;5549;47.028;15.514;2022-12-10T03:53:53;95147.44;;;5.04;85.26
10992;BME280;5549;47.028;15.514;2022-12-10T03:56:21;95146.59;;;5.03;84.50
10992;BME280;5549;47.028;15.514;2022-12-10T03:58:49;95151.41;;;5.08;85.22
10992;BME280;5549;47.028;15.514;2022-12-10T04:01:17;95159.66;;;5.13;85.41
10992;BME280;5549;47.028;15.514;2022-12-10T04:03:49;95150.63;;;5.17;85.02
10992;BME280;5549;47.028;15.514;2022-12-10T04:06:18;95145.19;;;5.20;84.93
10992;BME280;5549;47.028;15.514;2022-12-10T04:08:47;95140.63;;;5.12;84.27
10992;BME280;5549;47.028;15.514;2022-12-10T04:11:17;95142.66;;;5.09;84.41
10992;BME280;5549;47.028;15.514;2022-12-10T04:13:45;95136.91;;;5.05;84.40
10992;BME280;5549;47.028;15.514;2022-12-10T04:16:33;95134.25;;;4.96;84.41
10992;BME280;5549;47.028;15.514;2022-12-10T04:19:04;95140.28;;;4.96;84.92
10992;BME280;5549;47.028;15.514;2022-12-10T04:21:35;95138.94;;;5.02;85.28
10992;BME280;5549;47.028;15.514;2022-12-10T04:24:24;95140.06;;;5.09;85.08
10992;BME280;5549;47.028;15.514;2022-12-10T04:27:12;95144.75;;;5.15;84.62
10992;BME280;5549;47.028;15.514;2022-12-10T04:29:40;95149.44;;;5.21;84.93
10992;BME280;5549;47.028;15.514;2022-12-10T04:32:07;95155.09;;;5.26;84.78
10992;BME280;5549;47.028;15.514;2022-12-10T04:34:36;95153.88;;;5.30;84.71
10992;BME280;5549;47.028;15.514;2022-12-10T04:37:05;95150.31;;;5.31;85.68
10992;BME280;5549;47.028;15.514;2022-12-10T04:39:36;95154.81;;;5.29;85.07
10992;BME280;5549;47.028;15.514;2022-12-10T04:42:04;95165.25;;;5.29;85.46
10992;BME280;5549;47.028;15.514;2022-12-10T04:44:34;95163.47;;;5.30;84.96
10992;BME280;5549;47.028;15.514;2022-12-10T04:47:03;95160.59;;;5.33;85.33
10992;BME280;5549;47.028;15.514;2022-12-10T04:49:31;95160.19;;;5.37;85.46
10992;BME280;5549;47.028;15.514;2022-12-10T04:52:00;95165.97;;;5.41;85.07
10992;BME280;5549;47.028;15.514;2022-12-10T04:54:29;95175.16;;;5.45;85.21
10992;BME280;5549;47.028;15.514;2022-12-10T04:56:57;95174.06;;;5.47;84.90
10992;BME280;5549;47.028;15.514;2022-12-10T04:59:25;95185.19;;;5.50;84.88
10992;BME280;5549;47.028;15.514;2022-12-10T05:01:52;95178.06;;;5.52;85.36
10992;BME280;5549;47.028;15.514;2022-12-10T05:04:20;95171.91;;;5.53;84.68
10992;BME280;5549;47.028;15.514;2022-12-10T05:06:49;95171.63;;;5.56;85.43
10992;BME280;5549;47.028;15.514;2022-12-10T05:09:18;95176.72;;;5.57;84.62
10992;BME280;5549;47.028;15.514;2022-12-10T05:11:46;95177.53;;;5.58;85.38
10992;BME280;5549;47.028;15.514;2022-12-10T05:14:16;95185.09;;;5.61;84.45
10992;BME280;5549;47.028;15.514;2022-12-10T05:16:44;95187.00;;;5.59;84.46
10992;BME280;5549;47.028;15.514;2022-12-10T05:19:14;95187.13;;;5.57;84.67
10992;BME280;5549;47.028;15.514;2022-12-10T05:21:41;95201.94;;;5.57;85.40
10992;BME280;5549;47.028;15.514;2022-12-10T05:24:28;95193.28;;;5.56;85.15
10992;BME280;5549;47.028;15.514;2022-12-10T05:26:57;95183.28;;;5.52;84.65
10992;BME280;5549;47.028;15.514;2022-12-10T05:29:27;95191.78;;;5.54;84.78
10992;BME280;5549;47.028;15.514;2022-12-10T05:31:55;95187.25;;;5.56;84.85
10992;BME280;5549;47.028;15.514;2022-12-10T05:34:25;95188.78;;;5.58;84.53
10992;BME280;5549;47.028;15.514;2022-12-10T05:36:55;95185.22;;;5.59;85.29
10992;BME280;5549;47.028;15.514;2022-12-10T05:39:22;95172.88;;;5.61;84.90
10992;BME280;5549;47.028;15.514;2022-12-10T05:41:51;95171.78;;;5.64;84.63
10992;BME280;5549;47.028;15.514;2022-12-10T05:44:19;95169.88;;;5.66;84.94
10992;BME280;5549;47.028;15.514;2022-12-10T05:46:46;95158.78;;;5.64;84.65
10992;BME280;5549;47.028;15.514;2022-12-10T05:49:16;95171.66;;;5.65;84.83
10992;BME280;5549;47.028;15.514;2022-12-10T05:51:43;95176.75;;;5.67;84.55
10992;BME280;5549;47.028;15.514;2022-12-10T05:54:11;95187.03;;;5.68;84.28
10992;BME280;5549;47.028;15.514;2022-12-10T05:56:39;95177.44;;;5.69;84.42
10992;BME280;5549;47.028;15.514;2022-12-10T05:59:09;95179.78;;;5.72;84.93
10992;BME280;5549;47.028;15.514;2022-12-10T06:01:36;95178.81;;;5.73;84.98
10992;BME280;5549;47.028;15.514;2022-12-10T06:04:05;95177.84;;;5.74;84.05
10992;BME280;5549;47.028;15.514;2022-12-10T06:06:36;95176.34;;;5.71;84.07
10992;BME280;5549;47.028;15.514;2022-12-10T06:09:05;95178.09;;;5.61;84.05
10992;BME280;5549;47.028;15.514;2022-12-10T06:11:35;95176.56;;;5.59;83.91
10992;BME280;5549;47.028;15.514;2022-12-10T06:14:03;95183.44;;;5.60;84.60
10992;BME280;5549;47.028;15.514;2022-12-10T06:16:34;95183.44;;;5.60;84.50
10992;BME280;5549;47.028;15.514;2022-12-10T06:19:01;95182.47;;;5.61;84.37
10992;BME280;5549;47.028;15.514;2022-12-10T06:21:31;95189.19;;;5.63;84.88
10992;BME280;5549;47.028;15.514;2022-12-10T06:24:00;95189.75;;;5.67;84.63
10992;BME280;5549;47.028;15.514;2022-12-10T06:26:30;95182.78;;;5.67;84.56
10992;BME280;5549;47.028;15.514;2022-12-10T06:28:58;95181.94;;;5.67;84.16
10992;BME280;5549;47.028;15.514;2022-12-10T06:31:26;95179.22;;;5.68;84.01
10992;BME280;5549;47.028;15.514;2022-12-10T06:33:59;95183.59;;;5.68;84.11
10992;BME280;5549;47.028;15.514;2022-12-10T06:36:26;95177.56;;;5.67;84.37
10992;BME280;5549;47.028;15.514;2022-12-10T06:38:54;95180.84;;;5.69;84.76
10992;BME280;5549;47.028;15.514;2022-12-10T06:41:24;95183.72;;;5.66;84.67
10992;BME280;5549;47.028;15.514;2022-12-10T06:43:55;95178.66;;;5.65;84.84
10992;BME280;5549;47.028;15.514;2022-12-10T06:46:26;95180.56;;;5.63;84.32
10992;BME280;5549;47.028;15.514;2022-12-10T06:48:58;95181.78;;;5.59;84.44
10992;BME280;5549;47.028;15.514;2022-12-10T06:51:26;95173.56;;;5.54;84.35
10992;BME280;5549;47.028;15.514;2022-12-10T06:53:54;95173.41;;;5.55;84.74
10992;BME280;5549;47.028;15.514;2022-12-10T06:56:21;95173.16;;;5.58;84.71
10992;BME280;5549;47.028;15.514;2022-12-10T06:58:53;95168.50;;;5.62;84.17
10992;BME280;5549;47.028;15.514;2022-12-10T07:01:23;95162.06;;;5.66;84.58
10992;BME280;5549;47.028;15.514;2022-12-10T07:03:53;95174.56;;;5.72;84.12
10992;BME280;5549;47.028;15.514;2022-12-10T07:06:24;95169.09;;;5.75;84.70
10992;BME280;5549;47.028;15.514;2022-12-10T07:08:54;95166.22;;;5.78;84.71
10992;BME280;5549;47.028;15.514;2022-12-10T07:11:24;95166.91;;;5.80;84.58
10992;BME280;5549;47.028;15.514;2022-12-10T07:13:52;95164.97;;;5.82;83.99
10992;BME280;5549;47.028;15.514;2022-12-10T07:16:22;95167.47;;;5.84;84.94
10992;BME280;5549;47.028;15.514;2022-12-10T07:18:52;95168.28;;;5.84;84.50
10992;BME280;5549;47.028;15.514;2022-12-10T07:21:24;95177.88;;;5.84;84.57
10992;BME280;5549;47.028;15.514;2022-12-10T07:23:54;95173.50;;;5.84;84.78
10992;BME280;5549;47.028;15.514;2022-12-10T07:26:24;95173.22;;;5.87;84.03
10992;BME280;5549;47.028;15.514;2022-12-10T07:28:52;95166.31;;;6.17;86.32
10992;BME280;5549;47.028;15.514;2022-12-10T07:31:21;95165.34;;;6.56;88.58
10992;BME280;5549;47.028;15.514;2022-12-10T07:33:50;95165.03;;;6.98;90.01
10992;BME280;5549;47.028;15.514;2022-12-10T07:36:18;95157.22;;;7.35;90.75
10992;BME280;5549;47.028;15.514;2022-12-10T07:38:51;95152.25;;;7.69;91.23
10992;BME280;5549;47.028;15.514;2022-12-10T07:41:20;95151.41;;;7.96;90.38
10992;BME280;5549;47.028;15.514;2022-12-10T07:43:48;95149.84;;;8.21;90.15
10992;BME280;5549;47.028;15.514;2022-12-10T07:46:21;95161.69;;;8.43;89.12
10992;BME280;5549;47.028;15.514;2022-12-10T07:48:52;95165.41;;;8.58;87.61
10992;BME280;5549;47.028;15.514;2022-12-10T07:51:21;95159.16;;;8.68;84.88
10992;BME280;5549;47.028;15.514;2022-12-10T07:53:52;95162.66;;;8.77;83.39
10992;BME280;5549;47.028;15.514;2022-12-10T07:56:23;95166.16;;;8.86;81.70
10992;BME280;5549;47.028;15.514;2022-12-10T07:58:52;95172.13;;;8.96;79.98
10992;BME280;5549;47.028;15.514;2022-12-10T08:01:25;95171.53;;;9.02;79.34
10992;BME280;5549;47.028;15.514;2022-12-10T08:03:56;95173.38;;;9.10;78.88
10992;BME280;5549;47.028;15.514;2022-12-10T08:06:28;95173.56;;;9.16;77.02
10992;BME280;5549;47.028;15.514;2022-12-10T08:08:58;95176.72;;;9.20;75.17
10992;BME280;5549;47.028;15.514;2022-12-10T08:11:27;95193.69;;;8.72;72.71
10992;BME280;5549;47.028;15.514;2022-12-10T08:13:57;95192.50;;;8.21;72.74
10992;BME280;5549;47.028;15.514;2022-12-10T08:16:28;95187.94;;;7.78;73.57
10992;BME280;5549;47.028;15.514;2022-12-10T08:19:00;95193.78;;;7.35;74.71
10992;BME280;5549;47.028;15.514;2022-12-10T08:21:30;95194.69;;;7.06;76.00
10992;BME280;5549;47.028;15.514;2022-12-10T08:24:00;95198.28;;;6.76;77.22
10992;BME280;5549;47.028;15.514;2022-12-10T08:26:32;95193.19;;;6.65;77.35
10992;BME280;5549;47.028;15.514;2022-12-10T08:29:03;95181.25;;;6.53;78.30
10992;BME280;5549;47.028;15.514;2022-12-10T08:31:31;95196.22;;;6.41;78.56
10992;BME280;5549;47.028;15.514;2022-12-10T08:33:58;95192.66;;;6.33;79.67
10992;BME280;5549;47.028;15.514;2022-12-10T08:36:26;95193.19;;;6.27;79.94
10992;BME280;5549;47.028;15.514;2022-12-10T08:38:53;95187.97;;;6.27;80.04
10992;BME280;5549;47.028;15.514;2022-12-10T08:41:23;95186.34;;;6.26;80.54
10992;BME280;5549;47.028;15.514;2022-12-10T08:43:52;95188.81;;;6.27;80.74
10992;BME280;5549;47.028;15.514;2022-12-10T08:46:21;95191.97;;;6.31;80.59
10992;BME280;5549;47.028;15.514;2022-12-10T08:48:51;95184.00;;;6.32;80.06
10992;BME280;5549;47.028;15.514;2022-12-10T08:51:19;95179.63;;;6.33;80.14
10992;BME280;5549;47.028;15.514;2022-12-10T08:53:47;95179.06;;;6.29;80.31
10992;BME280;5549;47.028;15.514;2022-12-10T08:56:15;95186.63;;;6.32;81.31
10992;BME280;5549;47.028;15.514;2022-12-10T08:58:44;95194.31;;;6.34;81.17
10992;BME280;5549;47.028;15.514;2022-12-10T09:01:14;95196.91;;;6.34;81.38
10992;BME280;5549;47.028;15.514;2022-12-10T09:03:42;95196.91;;;6.34;80.90
10992;BME280;5549;47.028;15.514;2022-12-10T09:06:13;95194.16;;;6.26;80.95
10992;BME280;5549;47.028;15.514;2022-12-10T09:08:43;95193.19;;;6.27;81.12
10992;BME280;5549;47.028;15.514;2022-12-10T09:11:14;95199.78;;;6.31;81.23
10992;BME280;5549;47.028;15.514;2022-12-10T09:13:43;95203.63;;;6.36;81.36
10992;BME280;5549;47.028;15.514;2022-12-10T09:16:13;95204.19;;;6.40;81.62
10992;BME280;5549;47.028;15.514;2022-12-10T09:18:41;95194.44;;;6.42;81.66
10992;BME280;5549;47.028;15.514;2022-12-10T09:21:11;95192.78;;;6.41;81.39
10992;BME280;5549;47.028;15.514;2022-12-10T09:23:39;95206.09;;;6.38;81.18
10992;BME280;5549;47.028;15.514;2022-12-10T09:26:09;95205.69;;;6.33;81.69
10992;BME280;5549;47.028;15.514;2022-12-10T09:28:38;95200.06;;;6.28;81.22
10992;BME280;5549;47.028;15.514;2022-12-10T09:31:10;95197.03;;;6.23;81.56
10992;BME280;5549;47.028;15.514;2022-12-10T09:33:42;95197.03;;;6.23;81.88
10992;BME280;5549;47.028;15.514;2022-12-10T09:36:11;95190.19;;;6.22;81.50
10992;BME280;5549;47.028;15.514;2022-12-10T09:38:43;95188.94;;;6.26;81.50
10992;BME280;5549;47.028;15.514;2022-12-10T09:41:34;95195.53;;;6.30;81.66
10992;BME280;5549;47.028;15.514;2022-12-10T09:44:13;95192.78;;;6.31;81.88
10992;BME280;5549;47.028;15.514;2022-12-10T09:46:51;95199.91;;;6.29;82.01
10992;BME280;5549;47.028;15.514;2022-12-10T09:49:34;95197.03;;;6.23;82.02
10992;BME280;5549;47.028;15.514;2022-12-10T09:52:13;95199.09;;;6.19;82.06
10992;BME280;5549;47.028;15.514;2022-12-10T09:54:47;95192.91;;;6.10;82.42
10992;BME280;5549;47.028;15.514;2022-12-10T09:57:22;95187.78;;;5.90;82.58
10992;BME280;5549;47.028;15.514;2022-12-10T09:59:52;95182.88;;;5.96;82.36
10992;BME280;5549;47.028;15.514;2022-12-10T10:02:26;95171.34;;;5.99;82.24
10992;BME280;5549;47.028;15.514;2022-12-10T10:05:01;95177.38;;;5.99;82.70
10992;BME280;5549;47.028;15.514;2022-12-10T10:07:37;95173.56;;;6.03;82.92
10992;BME280;5549;47.028;15.514;2022-12-10T10:10:18;95163.41;;;6.10;82.79
10992;BME280;5549;47.028;15.514;2022-12-10T10:12:47;95159.44;;;6.16;82.32
10992;BME280;5549;47.028;15.514;2022-12-10T10:15:18;95166.44;;;6.05;82.86
10992;BME280;5549;47.028;15.514;2022-12-10T10:17:53;95159.56;;;6.04;83.02
10992;BME280;5549;47.028;15.514;2022-12-10T10:20:23;95159.84;;;6.01;82.21
10992;BME280;5549;47.028;15.514;2022-12-10T10:22:58;95147.09;;;5.98;83.23
10992;BME280;5549;47.028;15.514;2022-12-10T10:25:27;95141.72;;;6.00;82.34
10992;BME280;5549;47.028;15.514;2022-12-10T10:27:56;95136.78;;;5.97;82.26
10992;BME280;5549;47.028;15.514;2022-12-10T10:30:24;95137.47;;;5.89;82.73
10992;BME280;5549;47.028;15.514;2022-12-10T10:32:55;95127.13;;;5.78;83.41
10992;BME280;5549;47.028;15.514;2022-12-10T10:35:27;95125.50;;;5.77;83.30
10992;BME280;5549;47.028;15.514;2022-12-10T10:38:00;95121.66;;;5.71;83.56
10992;BME280;5549;47.028;15.514;2022-12-10T10:40:32;95111.19;;;5.52;85.11
10992;BME280;5549;47.028;15.514;2022-12-10T10:43:01;95106.13;;;5.51;85.42
10992;BME280;5549;47.028;15.514;2022-12-10T10:45:39;95101.75;;;5.61;84.84
10992;BME280;5549;47.028;15.514;2022-12-10T10:48:14;95106.00;;;5.62;85.16
10992;BME280;5549;47.028;15.514;2022-12-10T10:50:47;95104.63;;;5.67;85.04
10992;BME280;5549;47.028;15.514;2022-12-10T10:53:25;95100.25;;;5.68;85.28
10992;BME280;5549;47.028;15.514;2022-12-10T10:56:06;95088.59;;;5.72;85.05
10992;BME280;5549;47.028;15.514;2022-12-10T10:58:36;95096.97;;;5.75;84.92
10992;BME280;5549;47.028;15.514;2022-12-10T11:01:12;95100.56;;;5.84;84.79
10992;BME280;5549;47.028;15.514;2022-12-10T11:03:47;95091.63;;;5.87;84.57
10992;BME280;5549;47.028;15.514;2022-12-10T11:06:15;95093.88;;;5.91;84.84
10992;BME280;5549;47.028;15.514;2022-12-10T11:08:45;95091.78;;;5.85;84.63
10992;BME280;5549;47.028;15.514;2022-12-10T11:11:20;95091.78;;;5.85;84.87
10992;BME280;5549;47.028;15.514;2022-12-10T11:13:49;95079.44;;;5.87;83.61
10992;BME280;5549;47.028;15.514;2022-12-10T11:16:20;95080.84;;;5.91;84.06
10992;BME280;5549;47.028;15.514;2022-12-10T11:18:58;95070.25;;;5.83;83.99
10992;BME280;5549;47.028;15.514;2022-12-10T11:21:32;95067.66;;;5.83;83.90
10992;BME280;5549;47.028;15.514;2022-12-10T11:24:09;95069.00;;;5.87;84.57
10992;BME280;5549;47.028;15.514;2022-12-10T11:26:50;95066.13;;;6.38;87.84
10992;BME280;5549;47.028;15.514;2022-12-10T11:29:31;95065.03;;;6.41;86.26
10992;BME280;5549;47.028;15.514;2022-12-10T11:32:30;95066.75;;;6.69;86.84
10992;BME280;5549;47.028;15.514;2022-12-10T11:35:12;95064.22;;;6.97;86.99
10992;BME280;5549;47.028;15.514;2022-12-10T11:37:54;95058.81;;;7.08;85.65
10992;BME280;5549;47.028;15.514;2022-12-10T11:40:35;95061.22;;;7.19;84.71
10992;BME280;5549;47.028;15.514;2022-12-10T11:43:47;95059.16;;;7.23;83.88
10992;BME280;5549;47.028;15.514;2022-12-10T11:47:46;95060.53;;;7.45;83.36
10992;BME280;5549;47.028;15.514;2022-12-10T12:02:41;95063.16;;;7.45;76.97
10992;BME280;5549;47.028;15.514;2022-12-10T12:05:31;95058.13;;;7.06;77.36
10992;BME280;5549;47.028;15.514;2022-12-10T12:08:14;95054.38;;;6.71;78.06
10992;BME280;5549;47.028;15.514;2022-12-10T12:11:10;95055.53;;;6.50;79.38
10992;BME280;5549;47.028;15.514;2022-12-10T12:13:54;95061.06;;;6.37;79.92
10992;BME280;5549;47.028;15.514;2022-12-10T12:16:31;95067.53;;;6.14;80.11
10992;BME280;5549;47.028;15.514;2022-12-10T12:19:09;95072.19;;;6.10;81.06
10992;BME280;5549;47.028;15.514;2022-12-10T14:38:43;95065.81;;;5.05;82.48
10992;BME280;5549;47.028;15.514;2022-12-10T14:41:20;95064.19;;;5.04;81.99
10992;BME280;5549;47.028;15.514;2022-12-10T14:43:52;95071.03;;;5.05;82.35
10992;BME280;5549;47.028;15.514;2022-12-10T14:46:24;95074.31;;;5.07;81.81
10992;BME280;5549;47.028;15.514;2022-12-10T14:48:52;95075.97;;;5.08;82.25
10992;BME280;5549;47.028;15.514;2022-12-10T14:51:23;95078.16;;;5.12;82.46
10992;BME280;5549;47.028;15.514;2022-12-10T14:53:54;95078.72;;;5.16;81.52
10992;BME280;5549;47.028;15.514;2022-12-10T14:56:28;95068.31;;;5.16;81.85
10992;BME280;5549;47.028;15.514;2022-12-10T14:59:05;95062.03;;;5.19;81.76
10992;BME280;5549;47.028;15.514;2022-12-10T15:01:39;95069.72;;;5.20;81.20
10992;BME280;5549;47.028;15.514;2022-12-10T15:04:14;95060.97;;;5.21;81.50
10992;BME280;5549;47.028;15.514;2022-12-10T15:06:43;95070.78;;;5.18;80.54
10992;BME280;5549;47.028;15.514;2022-12-10T15:09:16;95073.41;;;5.18;80.83
10992;BME280;5549;47.028;15.514;2022-12-10T15:11:46;95070.91;;;5.16;81.03
10992;BME280;5549;47.028;15.514;2022-12-10T15:14:20;95069.28;;;5.15;80.67
10992;BME280;5549;47.028;15.514;2022-12-10T15:16:48;95071.88;;;5.15;80.23
10992;BME280;5549;47.028;15.514;2022-12-10T15:19:20;95069.13;;;5.07;79.48
10992;BME280;5549;47.028;15.514;2022-12-10T15:21:50;95065.00;;;5.04;79.54
10992;BME280;5549;47.028;15.514;2022-12-10T15:24:26;95062.53;;;5.03;79.70
10992;BME280;5549;47.028;15.514;2022-12-10T15:26:54;95054.56;;;4.95;78.31
10992;BME280;5549;47.028;15.514;2022-12-10T15:29:43;95058.63;;;4.88;79.25
10992;BME280;5549;47.028;15.514;2022-12-10T15:32:13;95052.63;;;4.87;79.46
10992;BME280;5549;47.028;15.514;2022-12-10T15:34:45;95059.03;;;4.83;78.65
10992;BME280;5549;47.028;15.514;2022-12-10T15:37:23;95051.06;;;4.75;78.76
10992;BME280;5549;47.028;15.514;2022-12-10T15:39:54;95058.03;;;4.74;79.17
10992;BME280;5549;47.028;15.514;2022-12-10T15:42:41;95057.78;;;4.77;79.33
10992;BME280;5549;47.028;15.514;2022-12-10T15:45:25;95061.06;;;4.79;78.98
10992;BME280;5549;47.028;15.514;2022-12-10T15:47:55;95066.00;;;4.82;78.85
10992;BME280;5549;47.028;15.514;2022-12-10T15:50:24;95060.00;;;4.82;79.05
10992;BME280;5549;47.028;15.514;2022-12-10T15:52:52;95058.06;;;4.84;78.39
10992;BME280;5549;47.028;15.514;2022-12-10T15:55:22;95055.59;;;4.82;79.00
10992;BME280;5549;47.028;15.514;2022-12-10T15:57:49;95054.78;;;4.82;78.66
10992;BME280;5549;47.028;15.514;2022-12-10T16:00:20;95057.50;;;4.80;78.72
10992;BME280;5549;47.028;15.514;2022-12-10T16:02:52;95055.19;;;4.77;78.19
10992;BME280;5549;47.028;15.514;2022-12-10T16:05:22;95056.13;;;4.76;78.86
10992;BME280;5549;47.028;15.514;2022-12-10T16:07:53;95058.03;;;4.74;77.95